createdAt,value
2022-12-23T00:00:40.518Z,97.76
2022-12-23T00:03:07.521Z,97.96
2022-12-23T00:05:41.040Z,96.25
2022-12-23T00:08:08.300Z,97.79
2022-12-23T00:10:38.367Z,97.54
2022-12-23T00:13:23.609Z,97.96
2022-12-23T00:15:50.142Z,97.56
2022-12-23T00:18:16.887Z,99.28
2022-12-23T00:20:43.528Z,97.99
2022-12-23T00:23:10.140Z,97.93
2022-12-23T00:25:41.768Z,99.03
2022-12-23T00:28:13.599Z,98.05
2022-12-23T00:30:47.390Z,97.80
2022-12-23T00:33:22.673Z,98.15
2022-12-23T00:35:49.927Z,98.67
2022-12-23T00:38:17.683Z,98.26
2022-12-23T00:41:03.267Z,98.84
2022-12-23T00:43:29.937Z,98.71
2022-12-23T00:45:56.643Z,98.55
2022-12-23T00:48:43.625Z,99.00
2022-12-23T00:51:10.167Z,97.99
2022-12-23T00:53:36.725Z,97.49
2022-12-23T00:56:03.375Z,97.57
2022-12-23T00:58:31.899Z,97.01
2022-12-23T01:01:18.944Z,97.84
2022-12-23T01:04:03.859Z,98.49
2022-12-23T01:06:30.490Z,99.09
2022-12-23T01:08:57.008Z,99.36
2022-12-23T01:11:23.591Z,99.55
2022-12-23T01:13:50.537Z,98.99
2022-12-23T01:16:18.029Z,98.87
2022-12-23T01:18:45.670Z,98.31
2022-12-23T01:21:12.473Z,98.26
2022-12-23T01:23:39.394Z,98.63
2022-12-23T01:26:07.807Z,97.32
2022-12-23T01:28:36.022Z,97.73
2022-12-23T01:31:05.048Z,98.41
2022-12-23T01:33:33.201Z,98.37
2022-12-23T01:36:05.148Z,99.18
2022-12-23T01:38:31.737Z,99.51
2022-12-23T01:40:58.505Z,99.14
2022-12-23T01:43:45.825Z,98.41
2022-12-23T01:46:12.417Z,99.47
2022-12-23T01:48:40.286Z,97.99
2022-12-23T01:51:27.567Z,99.36
2022-12-23T01:53:59.641Z,98.96
2022-12-23T01:56:31.076Z,97.95
2022-12-23T01:59:02.385Z,97.66
2022-12-23T02:01:49.101Z,97.57
2022-12-23T02:04:23.134Z,98.17
2022-12-23T02:07:09.844Z,98.09
2022-12-23T02:09:39.240Z,97.81
2022-12-23T02:12:28.087Z,98.04
2022-12-23T02:15:33.250Z,97.03
2022-12-23T02:18:09.925Z,96.61
2022-12-23T02:20:55.332Z,96.78
2022-12-23T02:23:40.365Z,97.17
2022-12-23T02:26:18.993Z,96.59
2022-12-23T02:29:04.676Z,96.57
2022-12-23T02:31:38.151Z,94.20
2022-12-23T02:34:18.992Z,94.29
2022-12-23T02:36:57.328Z,94.25
2022-12-23T02:39:47.131Z,93.88
2022-12-23T02:42:20.528Z,93.64
2022-12-23T02:44:53.219Z,95.43
2022-12-23T02:47:24.393Z,94.63
2022-12-23T02:49:56.356Z,93.42
2022-12-23T02:52:29.749Z,93.98
2022-12-23T02:55:05.644Z,94.42
2022-12-23T02:57:36.607Z,94.80
2022-12-23T03:00:04.553Z,94.23
2022-12-23T03:02:33.719Z,94.07
2022-12-23T03:05:01.153Z,95.74
2022-12-23T03:07:42.690Z,94.98
2022-12-23T03:10:16.373Z,96.04
2022-12-23T03:13:01.488Z,95.55
2022-12-23T03:15:47.280Z,95.50
2022-12-23T03:18:29.463Z,95.31
2022-12-23T03:21:16.087Z,95.01
2022-12-23T03:23:55.289Z,94.06
2022-12-23T03:26:31.181Z,97.99
2022-12-23T03:29:06.200Z,98.59
2022-12-23T03:31:34.851Z,99.62
2022-12-23T03:34:10.415Z,100.00
2022-12-23T03:36:54.459Z,100.00
2022-12-23T03:39:24.026Z,100.00
2022-12-23T03:42:00.588Z,100.00
2022-12-23T03:44:32.163Z,99.87
2022-12-23T03:47:10.770Z,100.00
2022-12-23T03:49:45.162Z,100.00
2022-12-23T03:52:22.711Z,99.48
2022-12-23T03:54:56.319Z,98.89
2022-12-23T03:57:28.750Z,97.71
2022-12-23T03:59:55.880Z,98.25
2022-12-23T04:02:32.735Z,98.06
2022-12-23T04:05:18.831Z,98.48
2022-12-23T04:07:52.130Z,97.74
2022-12-23T04:10:21.372Z,97.53
2022-12-23T04:12:48.818Z,97.41
2022-12-23T04:15:20.436Z,97.31
2022-12-23T04:17:47.848Z,97.97
2022-12-23T04:20:14.561Z,97.30
2022-12-23T04:22:43.621Z,98.91
2022-12-23T04:25:15.591Z,98.98
2022-12-23T04:27:42.683Z,98.49
2022-12-23T04:30:11.444Z,98.57
2022-12-23T04:32:38.270Z,99.74
2022-12-23T04:35:05.345Z,100.00
2022-12-23T04:37:32.087Z,99.91
2022-12-23T04:39:58.620Z,100.00
2022-12-23T04:42:25.243Z,100.00
2022-12-23T04:44:52.015Z,100.00
2022-12-23T04:47:18.678Z,100.00
2022-12-23T04:49:45.288Z,100.00
2022-12-23T04:52:11.980Z,100.00
2022-12-23T04:54:45.506Z,100.00
2022-12-23T04:57:13.139Z,100.00
2022-12-23T04:59:39.691Z,100.00
2022-12-23T05:02:06.745Z,100.00
2022-12-23T05:04:33.693Z,100.00
2022-12-23T05:07:00.296Z,100.00
2022-12-23T05:09:26.823Z,100.00
2022-12-23T05:11:53.579Z,100.00
2022-12-23T05:14:20.385Z,100.00
2022-12-23T05:16:47.018Z,100.00
2022-12-23T05:19:13.909Z,98.84
2022-12-23T05:21:40.690Z,99.28
2022-12-23T05:24:07.447Z,100.00
2022-12-23T05:26:34.463Z,100.00
2022-12-23T05:29:01.036Z,100.00
2022-12-23T05:31:27.670Z,100.00
2022-12-23T05:33:54.357Z,100.00
2022-12-23T05:36:20.952Z,100.00
2022-12-23T05:38:48.456Z,100.00
2022-12-23T05:41:17.110Z,100.00
2022-12-23T05:43:43.675Z,100.00
2022-12-23T05:46:10.500Z,100.00
2022-12-23T05:48:37.354Z,100.00
2022-12-23T05:51:04.118Z,100.00
2022-12-23T05:53:30.744Z,100.00
2022-12-23T05:55:57.541Z,100.00
2022-12-23T05:58:24.319Z,99.49
2022-12-23T06:00:51.026Z,100.00
2022-12-23T06:03:17.889Z,100.00
2022-12-23T06:05:44.535Z,100.00
2022-12-23T06:08:11.291Z,100.00
2022-12-23T06:10:37.927Z,100.00
2022-12-23T06:13:04.511Z,100.00
2022-12-23T06:15:31.226Z,100.00
2022-12-23T06:17:58.440Z,100.00
2022-12-23T06:20:25.132Z,100.00
2022-12-23T06:22:51.752Z,100.00
2022-12-23T06:25:18.472Z,100.00
2022-12-23T06:27:45.257Z,100.00
2022-12-23T06:30:12.357Z,100.00
2022-12-23T06:32:39.847Z,100.00
2022-12-23T06:35:10.125Z,100.00
2022-12-23T06:37:36.736Z,100.00
2022-12-23T06:40:03.936Z,100.00
2022-12-23T06:42:30.624Z,100.00
2022-12-23T06:44:57.174Z,100.00
2022-12-23T06:47:23.705Z,100.00
2022-12-23T06:49:50.271Z,100.00
2022-12-23T06:52:17.001Z,100.00
2022-12-23T06:54:43.775Z,100.00
2022-12-23T06:57:10.352Z,100.00
2022-12-23T06:59:36.937Z,100.00
2022-12-23T07:02:04.053Z,100.00
2022-12-23T07:04:30.833Z,100.00
2022-12-23T07:06:57.868Z,100.00
2022-12-23T07:09:24.703Z,100.00
2022-12-23T07:11:51.270Z,100.00
2022-12-23T07:14:17.834Z,100.00
2022-12-23T07:16:45.484Z,100.00
2022-12-23T07:19:12.342Z,100.00
2022-12-23T07:21:38.881Z,100.00
2022-12-23T07:24:06.390Z,100.00
2022-12-23T07:26:33.015Z,100.00
2022-12-23T07:28:59.551Z,100.00
2022-12-23T07:31:26.396Z,100.00
2022-12-23T07:33:52.965Z,100.00
2022-12-23T07:36:19.601Z,100.00
2022-12-23T07:38:50.243Z,100.00
2022-12-23T07:41:17.185Z,100.00
2022-12-23T07:43:43.891Z,100.00
2022-12-23T07:46:10.877Z,100.00
2022-12-23T07:48:37.701Z,100.00
2022-12-23T07:51:04.841Z,100.00
2022-12-23T07:53:31.640Z,100.00
2022-12-23T07:55:58.835Z,100.00
2022-12-23T07:58:25.801Z,100.00
2022-12-23T08:00:59.508Z,100.00
2022-12-23T08:03:26.154Z,100.00
2022-12-23T08:06:07.053Z,100.00
2022-12-23T08:08:34.164Z,98.97
2022-12-23T08:11:03.338Z,99.58
2022-12-23T08:13:32.074Z,99.13
2022-12-23T08:16:00.794Z,98.13
2022-12-23T08:18:29.701Z,97.54
2022-12-23T08:20:58.423Z,98.21
2022-12-23T08:23:26.687Z,98.02
2022-12-23T08:26:09.397Z,98.76
2022-12-23T08:28:37.508Z,98.29
2022-12-23T08:31:09.232Z,98.18
2022-12-23T08:33:38.215Z,98.60
2022-12-23T08:36:06.838Z,98.92
2022-12-23T08:38:34.477Z,99.24
2022-12-23T08:41:01.261Z,99.56
2022-12-23T08:43:35.281Z,99.18
2022-12-23T08:46:03.052Z,99.86
2022-12-23T08:48:29.738Z,99.21
2022-12-23T08:50:56.348Z,98.86
2022-12-23T08:53:23.141Z,97.10
2022-12-23T08:55:49.773Z,96.13
2022-12-23T08:58:16.407Z,96.03
2022-12-23T09:00:43.105Z,97.21
2022-12-23T09:03:09.998Z,96.39
2022-12-23T09:05:41.502Z,96.66
2022-12-23T09:08:09.433Z,97.04
2022-12-23T09:10:43.666Z,98.66
2022-12-23T09:13:16.238Z,98.97
2022-12-23T09:15:47.028Z,99.71
2022-12-23T09:18:13.708Z,100.00
2022-12-23T09:20:40.405Z,100.00
2022-12-23T09:23:06.973Z,100.00
2022-12-23T09:25:35.634Z,100.00
2022-12-23T09:28:02.595Z,100.00
2022-12-23T09:30:29.304Z,100.00
2022-12-23T09:32:56.077Z,100.00
2022-12-23T09:35:22.621Z,100.00
2022-12-23T09:37:49.222Z,100.00
2022-12-23T09:40:21.599Z,100.00
2022-12-23T09:42:56.336Z,98.53
2022-12-23T09:45:50.037Z,98.53
2022-12-23T09:48:22.311Z,98.68
2022-12-23T09:50:49.174Z,100.00
2022-12-23T09:53:19.900Z,100.00
2022-12-23T09:55:55.027Z,99.41
2022-12-23T09:58:35.696Z,99.80
2022-12-23T10:01:18.477Z,100.00
2022-12-23T10:04:37.911Z,100.00
2022-12-23T10:07:04.495Z,100.00
2022-12-23T10:09:35.540Z,100.00
2022-12-23T10:12:19.716Z,100.00
2022-12-23T10:14:52.217Z,100.00
2022-12-23T10:17:41.811Z,100.00
2022-12-23T10:20:18.466Z,100.00
2022-12-23T10:22:46.463Z,100.00
2022-12-23T10:25:20.015Z,100.00
2022-12-23T10:27:46.718Z,100.00
2022-12-23T10:30:51.341Z,100.00
2022-12-23T10:33:21.649Z,100.00
2022-12-23T10:36:11.469Z,100.00
2022-12-23T10:38:38.129Z,100.00
2022-12-23T10:41:13.415Z,100.00
2022-12-23T10:44:01.453Z,100.00
2022-12-23T10:46:31.106Z,100.00
2022-12-23T10:49:16.175Z,100.00
2022-12-23T10:51:59.482Z,100.00
2022-12-23T10:54:32.950Z,100.00
2022-12-23T10:57:00.086Z,100.00
2022-12-23T10:59:29.541Z,100.00
2022-12-23T11:02:11.640Z,100.00
2022-12-23T11:04:42.069Z,100.00
2022-12-23T11:07:42.670Z,100.00
2022-12-23T11:10:04.640Z,100.00
2022-12-23T11:12:44.555Z,100.00
2022-12-23T11:15:28.573Z,100.00
2022-12-23T11:18:19.510Z,100.00
2022-12-23T11:21:02.580Z,100.00
2022-12-23T11:23:33.083Z,100.00
2022-12-23T11:26:08.719Z,100.00
2022-12-23T11:28:38.391Z,100.00
2022-12-23T11:31:09.781Z,100.00
2022-12-23T11:33:45.709Z,100.00
2022-12-23T11:36:12.222Z,100.00
2022-12-23T11:38:50.732Z,100.00
2022-12-23T11:41:22.449Z,100.00
2022-12-23T11:43:58.457Z,100.00
2022-12-23T11:46:29.862Z,98.00
2022-12-23T11:49:13.965Z,99.24
2022-12-23T11:51:41.040Z,99.85
2022-12-23T11:54:16.448Z,100.00
2022-12-23T11:56:43.574Z,100.00
2022-12-23T11:59:45.795Z,100.00
2022-12-23T12:02:20.182Z,100.00
2022-12-23T12:04:57.759Z,100.00
2022-12-23T12:07:26.041Z,100.00
2022-12-23T12:09:56.588Z,100.00
2022-12-23T12:12:23.764Z,100.00
2022-12-23T12:14:56.392Z,100.00
2022-12-23T12:17:47.246Z,99.80
2022-12-23T12:20:25.634Z,100.00
2022-12-23T12:23:02.347Z,100.00
2022-12-23T12:25:39.670Z,100.00
2022-12-23T12:28:13.760Z,100.00
2022-12-23T12:30:48.738Z,100.00
2022-12-23T12:33:18.305Z,100.00
2022-12-23T12:35:53.967Z,100.00
2022-12-23T12:38:32.714Z,100.00
2022-12-23T12:41:07.976Z,99.70
2022-12-23T12:43:39.970Z,98.75
2022-12-23T12:46:14.060Z,99.67
2022-12-23T12:48:46.708Z,100.00
2022-12-23T12:51:24.708Z,99.63
2022-12-23T12:54:04.664Z,100.00
2022-12-23T12:56:47.008Z,100.00
2022-12-23T12:59:24.933Z,99.73
2022-12-23T13:02:30.499Z,100.00
2022-12-23T13:05:28.657Z,100.00
2022-12-23T13:08:19.307Z,100.00
2022-12-23T13:11:09.630Z,100.00
2022-12-23T13:14:02.592Z,100.00
2022-12-23T13:16:57.309Z,100.00
2022-12-23T13:19:51.373Z,100.00
2022-12-23T13:22:27.491Z,100.00
2022-12-23T13:25:19.735Z,100.00
2022-12-23T13:27:49.132Z,100.00
2022-12-23T13:30:21.566Z,100.00
2022-12-23T13:33:11.131Z,100.00
2022-12-23T13:35:55.465Z,100.00
2022-12-23T13:38:54.852Z,100.00
2022-12-23T13:41:34.557Z,100.00
2022-12-23T13:44:06.670Z,100.00
2022-12-23T13:47:02.439Z,100.00
2022-12-23T13:49:38.360Z,100.00
2022-12-23T13:52:17.343Z,100.00
2022-12-23T13:54:56.016Z,100.00
2022-12-23T13:57:40.555Z,100.00
2022-12-23T14:00:17.073Z,100.00
2022-12-23T14:03:05.591Z,100.00
2022-12-23T14:05:38.929Z,100.00
2022-12-23T14:08:07.571Z,100.00
2022-12-23T14:10:35.382Z,100.00
2022-12-23T14:13:06.368Z,100.00
2022-12-23T14:15:52.920Z,100.00
2022-12-23T14:18:45.579Z,100.00
2022-12-23T14:21:32.369Z,100.00
2022-12-23T14:24:10.813Z,100.00
2022-12-23T14:27:16.206Z,100.00
2022-12-23T14:29:57.435Z,100.00
2022-12-23T14:32:36.054Z,100.00
2022-12-23T14:35:15.414Z,100.00
2022-12-23T14:37:42.842Z,100.00
2022-12-23T14:40:37.406Z,100.00
2022-12-23T14:43:22.842Z,100.00
2022-12-23T14:45:57.849Z,100.00
2022-12-23T14:48:33.624Z,100.00
2022-12-23T14:51:37.406Z,100.00
2022-12-23T14:54:03.858Z,100.00
2022-12-23T14:56:39.502Z,100.00
2022-12-23T14:59:27.075Z,100.00
2022-12-23T15:01:58.011Z,100.00
2022-12-23T15:04:30.520Z,100.00
2022-12-23T15:06:57.066Z,100.00
2022-12-23T15:09:44.770Z,100.00
2022-12-23T15:12:18.060Z,100.00
2022-12-23T15:14:50.957Z,100.00
2022-12-23T15:17:33.391Z,100.00
2022-12-23T15:20:24.606Z,100.00
2022-12-23T15:22:52.734Z,100.00
2022-12-23T15:25:28.547Z,100.00
2022-12-23T15:28:01.865Z,100.00
2022-12-23T15:30:48.150Z,100.00
2022-12-23T15:34:00.935Z,100.00
2022-12-23T15:36:10.681Z,100.00
2022-12-23T15:38:39.128Z,100.00
2022-12-23T15:41:14.951Z,100.00
2022-12-23T15:43:42.594Z,100.00
2022-12-23T15:46:16.225Z,100.00
2022-12-23T15:48:43.342Z,100.00
2022-12-23T15:51:12.620Z,100.00
2022-12-23T15:53:42.580Z,100.00
2022-12-23T15:56:18.522Z,100.00
2022-12-23T15:58:45.798Z,100.00
2022-12-23T16:01:18.307Z,100.00
2022-12-23T16:03:53.021Z,100.00
2022-12-23T16:06:22.344Z,100.00
2022-12-23T16:08:58.034Z,100.00
2022-12-23T16:11:38.155Z,100.00
2022-12-23T16:14:30.616Z,100.00
2022-12-23T16:17:09.370Z,100.00
2022-12-23T16:19:44.097Z,100.00
2022-12-23T16:22:18.069Z,100.00
2022-12-23T16:24:52.036Z,100.00
2022-12-23T16:27:25.941Z,100.00
2022-12-23T16:29:52.773Z,100.00
2022-12-23T16:32:19.775Z,100.00
2022-12-23T16:34:50.688Z,100.00
2022-12-23T16:37:17.360Z,100.00
2022-12-23T16:39:43.962Z,100.00
2022-12-23T16:42:10.538Z,100.00
2022-12-23T16:44:37.270Z,100.00
2022-12-23T16:47:13.384Z,100.00
2022-12-23T16:49:40.003Z,100.00
2022-12-23T16:52:09.379Z,100.00
2022-12-23T16:54:35.976Z,100.00
2022-12-23T16:57:02.687Z,100.00
2022-12-23T16:59:29.418Z,100.00
2022-12-23T17:02:02.943Z,100.00
2022-12-23T17:04:30.363Z,100.00
2022-12-23T17:06:56.936Z,100.00
2022-12-23T17:09:23.494Z,100.00
2022-12-23T17:11:53.891Z,100.00
2022-12-23T17:14:22.965Z,100.00
2022-12-23T17:16:50.019Z,100.00
2022-12-23T17:19:23.417Z,100.00
2022-12-23T17:21:59.709Z,100.00
2022-12-23T17:24:27.157Z,100.00
2022-12-23T17:26:55.279Z,100.00
2022-12-23T17:29:22.142Z,100.00
2022-12-23T17:31:49.843Z,100.00
2022-12-23T17:34:18.452Z,100.00
2022-12-23T17:36:49.954Z,100.00
2022-12-23T17:39:17.775Z,100.00
2022-12-23T17:41:44.509Z,100.00
2022-12-23T17:44:13.859Z,100.00
2022-12-23T17:46:40.953Z,100.00
2022-12-23T17:49:08.703Z,100.00
2022-12-23T17:51:35.626Z,100.00
2022-12-23T17:54:02.434Z,100.00
2022-12-23T17:56:33.179Z,100.00
2022-12-23T17:58:59.773Z,100.00
2022-12-23T18:01:32.193Z,100.00
2022-12-23T18:04:00.174Z,100.00
2022-12-23T18:06:28.580Z,100.00
2022-12-23T18:08:57.492Z,100.00
2022-12-23T18:11:53.355Z,100.00
2022-12-23T18:14:28.213Z,100.00
2022-12-23T18:16:54.971Z,100.00
2022-12-23T18:19:21.664Z,100.00
2022-12-23T18:21:48.718Z,100.00
2022-12-23T18:24:15.831Z,100.00
2022-12-23T18:26:43.061Z,100.00
2022-12-23T18:29:09.651Z,100.00
2022-12-23T18:31:48.401Z,100.00
2022-12-23T18:34:18.417Z,100.00
2022-12-23T18:36:45.687Z,100.00
2022-12-23T18:39:12.325Z,100.00
2022-12-23T18:41:38.866Z,100.00
2022-12-23T18:44:05.405Z,100.00
2022-12-23T18:46:32.041Z,100.00
2022-12-23T18:48:58.719Z,100.00
2022-12-23T18:51:25.284Z,99.92
2022-12-23T18:53:51.872Z,99.09
2022-12-23T18:56:21.381Z,97.44
2022-12-23T18:58:48.238Z,97.07
2022-12-23T19:01:16.907Z,96.62
2022-12-23T19:03:43.780Z,98.16
2022-12-23T19:06:13.524Z,98.92
2022-12-23T19:08:41.332Z,99.42
2022-12-23T19:11:13.885Z,99.07
2022-12-23T19:13:40.501Z,99.25
2022-12-23T19:16:07.642Z,99.53
2022-12-23T19:18:34.571Z,98.99
2022-12-23T19:21:04.493Z,99.45
2022-12-23T19:23:31.376Z,99.14
2022-12-23T19:25:57.960Z,99.37
2022-12-23T19:28:24.657Z,98.87
2022-12-23T19:30:51.583Z,98.30
2022-12-23T19:33:18.250Z,98.12
2022-12-23T19:35:44.917Z,98.29
2022-12-23T19:38:12.426Z,97.85
2022-12-23T19:40:39.724Z,96.97
2022-12-23T19:43:06.404Z,96.55
2022-12-23T19:45:32.985Z,96.86
2022-12-23T19:47:59.565Z,96.79
2022-12-23T19:50:27.288Z,95.51
2022-12-23T19:52:56.372Z,95.87
2022-12-23T19:55:23.403Z,95.03
2022-12-23T19:57:50.047Z,95.65
2022-12-23T20:00:16.794Z,95.76
2022-12-23T20:02:43.511Z,96.96
2022-12-23T20:05:10.272Z,96.98
2022-12-23T20:07:37.296Z,96.93
2022-12-23T20:10:05.504Z,97.14
2022-12-23T20:12:32.258Z,96.76
2022-12-23T20:14:58.847Z,98.13
2022-12-23T20:17:25.614Z,98.06
2022-12-23T20:19:52.243Z,99.00
2022-12-23T20:22:18.901Z,99.47
2022-12-23T20:24:45.727Z,99.69
2022-12-23T20:27:14.904Z,99.30
2022-12-23T20:29:42.644Z,99.82
2022-12-23T20:32:09.452Z,100.00
2022-12-23T20:34:39.470Z,100.00
2022-12-23T20:37:07.056Z,100.00
2022-12-23T20:39:33.909Z,99.44
2022-12-23T20:42:00.468Z,99.68
2022-12-23T20:44:36.007Z,99.45
2022-12-23T20:47:07.102Z,100.00
2022-12-23T20:49:33.782Z,100.00
2022-12-23T20:52:01.208Z,100.00
2022-12-23T20:54:32.795Z,99.27
2022-12-23T20:57:01.089Z,99.16
2022-12-23T20:59:28.006Z,98.62
2022-12-23T21:01:54.978Z,96.94
2022-12-23T21:04:22.648Z,96.34
2022-12-23T21:06:49.700Z,95.64
2022-12-23T21:09:16.422Z,95.15
2022-12-23T21:11:46.241Z,95.16
2022-12-23T21:14:14.653Z,95.68
2022-12-23T21:16:42.624Z,94.88
2022-12-23T21:19:15.748Z,96.77
2022-12-23T21:21:42.735Z,97.05
2022-12-23T21:24:10.754Z,97.81
2022-12-23T21:26:37.501Z,98.05
2022-12-23T21:29:06.455Z,98.99
2022-12-23T21:31:35.142Z,100.00
2022-12-23T21:34:02.282Z,100.00
2022-12-23T21:36:31.676Z,100.00
2022-12-23T21:38:59.247Z,100.00
2022-12-23T21:41:29.157Z,100.00
2022-12-23T21:44:00.161Z,100.00
2022-12-23T21:46:28.312Z,100.00
2022-12-23T21:48:58.957Z,100.00
2022-12-23T21:51:31.807Z,100.00
2022-12-23T21:54:03.699Z,100.00
2022-12-23T21:56:31.566Z,100.00
2022-12-23T21:59:13.118Z,100.00
2022-12-23T22:01:40.915Z,100.00
2022-12-23T22:04:07.984Z,100.00
2022-12-23T22:06:39.156Z,100.00
2022-12-23T22:09:07.323Z,100.00
2022-12-23T22:11:35.692Z,100.00
2022-12-23T22:14:04.263Z,100.00
2022-12-23T22:16:31.795Z,100.00
2022-12-23T22:19:00.255Z,100.00
2022-12-23T22:21:29.529Z,100.00
2022-12-23T22:23:57.102Z,100.00
2022-12-23T22:26:26.997Z,100.00
2022-12-23T22:28:58.648Z,100.00
2022-12-23T22:31:45.310Z,100.00
2022-12-23T22:34:18.946Z,100.00
2022-12-23T22:36:46.141Z,100.00
2022-12-23T22:39:21.127Z,100.00
2022-12-23T22:41:49.968Z,100.00
2022-12-23T22:44:16.713Z,100.00
2022-12-23T22:46:43.601Z,100.00
2022-12-23T22:49:15.270Z,100.00
2022-12-23T22:51:43.140Z,100.00
2022-12-23T22:54:10.295Z,99.54
2022-12-23T22:56:36.966Z,98.60
2022-12-23T22:59:04.847Z,98.96
2022-12-23T23:01:34.396Z,98.58
2022-12-23T23:04:03.054Z,98.93
2022-12-23T23:06:37.863Z,99.06
2022-12-23T23:09:11.451Z,99.21
2022-12-23T23:11:38.648Z,98.43
2022-12-23T23:14:05.785Z,98.41
2022-12-23T23:16:33.307Z,98.89
2022-12-23T23:19:00.503Z,98.12
2022-12-23T23:21:27.220Z,97.51
2022-12-23T23:23:53.947Z,98.47
2022-12-23T23:26:21.136Z,98.21
2022-12-23T23:28:48.050Z,98.06
2022-12-23T23:31:41.452Z,97.77
2022-12-23T23:34:01.375Z,97.97
2022-12-23T23:36:28.082Z,96.94
2022-12-23T23:38:54.836Z,97.46
2022-12-23T23:41:23.640Z,97.02
2022-12-23T23:43:51.335Z,97.72
2022-12-23T23:46:18.346Z,98.43
2022-12-23T23:48:45.248Z,98.48
2022-12-23T23:51:12.821Z,98.62
2022-12-23T23:53:40.225Z,98.92
2022-12-23T23:56:08.537Z,98.84
2022-12-23T23:58:36.484Z,98.21
